Time;durP1;ratioP1;P1;durP2;ratioP2;P2;SDS_P1;SDS_P2;PMS_P1;PMS_P2;Temp;Humidity;BMP_temperature;BMP_pressure;BME280_temperature;BME280_humidity;BME280_pressure;Samples;Min_cycle;Max_cycle;Signal;HPM_P1;HPM_P2
2020/12/03 00:01:05;;;;;;;34.45;16.88;;;;;;;-1.19;65.30;94244.06;5062742;28;20029;-68
2020/12/03 00:03:36;;;;;;;35.13;15.52;;;;;;;-1.20;65.61;94247.72;5057475;28;20472;-68
2020/12/03 00:06:13;;;;;;;34.22;15.90;;;;;;;-1.19;65.35;94235.44;5062901;28;20055;-68
2020/12/03 00:08:41;;;;;;;29.90;14.55;;;;;;;-1.12;65.29;94233.47;5053693;28;20162;-69
2020/12/03 00:11:07;;;;;;;33.75;14.32;;;;;;;-1.18;65.47;94240.44;5062273;28;20021;-69
2020/12/03 00:13:35;;;;;;;31.67;14.02;;;;;;;-1.19;65.27;94244.06;5066373;28;20036;-68
2020/12/03 00:16:01;;;;;;;40.25;16.65;;;;;;;-1.16;64.86;94243.63;5056816;28;20293;-68
2020/12/03 00:18:30;;;;;;;34.63;16.80;;;;;;;-1.16;64.53;94253.25;5063183;28;20028;-68
2020/12/03 00:20:56;;;;;;;32.70;16.63;;;;;;;-1.20;64.52;94247.72;5052989;28;20079;-69
2020/12/03 00:23:22;;;;;;;41.65;18.75;;;;;;;-1.26;64.79;94257.28;5057006;28;20081;-67
2020/12/03 00:25:51;;;;;;;40.47;17.08;;;;;;;-1.27;64.83;94250.44;5053404;28;20020;-68
2020/12/03 00:28:16;;;;;;;38.38;16.80;;;;;;;-1.26;65.46;94249.44;5053048;28;20086;-67
2020/12/03 00:30:45;;;;;;;36.53;16.65;;;;;;;-1.20;64.89;94258.19;5066301;28;20484;-67
2020/12/03 00:33:17;;;;;;;33.92;15.73;;;;;;;-1.20;64.60;94260.78;5072579;28;20499;-68
2020/12/03 00:35:45;;;;;;;30.92;14.32;;;;;;;-1.23;65.15;94248.16;5071775;28;20106;-68
2020/12/03 00:38:11;;;;;;;27.02;12.23;;;;;;;-1.22;64.49;94255.00;5071579;28;20021;-69
2020/12/03 00:40:36;;;;;;;26.83;12.90;;;;;;;-1.21;65.05;94246.13;5073047;28;20028;-68
2020/12/03 00:43:02;;;;;;;29.38;12.63;;;;;;;-1.22;65.10;94247.16;5072797;28;20017;-68
2020/12/03 00:45:27;;;;;;;32.65;13.18;;;;;;;-1.24;64.28;94246.59;5069352;28;20041;-68
2020/12/03 00:47:52;;;;;;;28.67;13.98;;;;;;;-1.34;65.07;94246.34;5052908;28;20037;-68
2020/12/03 00:50:18;;;;;;;26.55;13.25;;;;;;;-1.28;64.86;94253.31;5049852;28;20477;-68
2020/12/03 00:52:44;;;;;;;33.47;13.57;;;;;;;-1.29;65.18;94251.69;5052475;28;20067;-68
2020/12/03 00:55:10;;;;;;;31.88;13.32;;;;;;;-1.27;65.29;94252.25;5052922;28;20112;-69
2020/12/03 00:57:36;;;;;;;29.15;13.57;;;;;;;-1.26;64.91;94248.63;5052724;28;20064;-68
2020/12/03 01:00:04;;;;;;;29.38;13.00;;;;;;;-1.26;64.77;94249.44;5051419;28;20053;-69
2020/12/03 01:02:29;;;;;;;34.15;13.85;;;;;;;-1.23;64.37;94248.94;5052277;28;20033;-69
2020/12/03 01:04:54;;;;;;;31.55;12.85;;;;;;;-1.22;64.14;94252.38;5065966;28;20081;-68
2020/12/03 01:07:20;;;;;;;32.05;12.30;;;;;;;-1.23;64.85;94246.34;5072350;28;20515;-68
2020/12/03 01:09:45;;;;;;;34.15;13.43;;;;;;;-1.24;65.23;94234.28;5071049;28;20074;-69
2020/12/03 01:12:12;;;;;;;30.70;14.40;;;;;;;-1.22;65.34;94250.56;5071195;28;20033;-68
2020/12/03 01:14:38;;;;;;;29.48;13.75;;;;;;;-1.23;65.24;94243.72;5070948;28;20036;-69
2020/12/03 01:17:11;;;;;;;33.10;14.35;;;;;;;-1.17;64.74;94236.78;5071079;28;20506;-69
2020/12/03 01:19:37;;;;;;;30.23;12.70;;;;;;;-1.17;65.00;94225.53;5072034;28;20028;-69
2020/12/03 01:22:03;;;;;;;28.08;13.10;;;;;;;-1.22;64.96;94219.16;5072208;28;20020;-69
2020/12/03 01:24:29;;;;;;;24.92;12.13;;;;;;;-1.25;64.80;94227.47;5070540;28;20021;-69
2020/12/03 01:26:54;;;;;;;26.45;11.82;;;;;;;-1.24;64.43;94220.44;5072351;28;20032;-69
2020/12/03 01:29:22;;;;;;;26.83;11.57;;;;;;;-1.23;64.42;94217.56;5071967;28;20032;-69
2020/12/03 01:31:47;;;;;;;26.60;12.18;;;;;;;-1.28;64.29;94219.31;5072278;28;20078;-68
2020/12/03 01:34:13;;;;;;;33.50;12.13;;;;;;;-1.29;64.73;94215.09;5070277;28;20020;-69
2020/12/03 01:36:38;;;;;;;28.67;11.85;;;;;;;-1.33;64.49;94216.56;5072124;28;20062;-69
2020/12/03 01:39:06;;;;;;;25.05;11.48;;;;;;;-1.39;65.02;94209.63;5071722;28;20032;-69
2020/12/03 01:41:31;;;;;;;29.92;12.00;;;;;;;-1.42;65.24;94209.06;5070549;28;20475;-69
2020/12/03 01:43:57;;;;;;;27.00;12.00;;;;;;;-1.37;65.14;94216.22;5071700;28;20024;-69
2020/12/03 01:46:22;;;;;;;21.58;10.90;;;;;;;-1.33;65.54;94216.56;5071650;28;20051;-68
2020/12/03 01:48:50;;;;;;;25.90;12.73;;;;;;;-1.36;65.59;94209.16;5070236;28;20024;-68
2020/12/03 01:51:27;;;;;;;28.38;12.20;;;;;;;-1.37;65.87;94199.75;5071285;28;20040;-68
2020/12/03 01:53:58;;;;;;;26.80;12.30;;;;;;;-1.37;65.69;94199.75;5070361;28;20119;-68
2020/12/03 01:56:46;;;;;;;28.40;12.25;;;;;;;-1.34;65.11;94191.44;5071506;28;20533;-68
2020/12/03 01:59:13;;;;;;;24.63;11.88;;;;;;;-1.34;64.75;94205.31;5061382;28;20028;-68
2020/12/03 02:01:39;;;;;;;22.08;10.13;;;;;;;-1.37;64.84;94192.69;5050900;28;20488;-68
2020/12/03 02:04:05;;;;;;;26.23;12.32;;;;;;;-1.39;65.62;94191.34;5051099;28;20090;-68
2020/12/03 02:06:34;;;;;;;27.38;12.02;;;;;;;-1.38;65.32;94188.50;5049977;28;20025;-68
2020/12/03 02:09:00;;;;;;;30.52;11.57;;;;;;;-1.36;65.66;94181.22;5047502;28;20032;-68
2020/12/03 02:11:26;;;;;;;23.15;11.52;;;;;;;-1.33;65.86;94179.97;5065056;28;20036;-68
2020/12/03 02:13:54;;;;;;;25.80;11.23;;;;;;;-1.29;65.07;94181.09;5052243;28;20036;-69
2020/12/03 02:16:21;;;;;;;32.58;12.65;;;;;;;-1.30;65.23;94188.16;5051199;28;20025;-68
2020/12/03 02:18:47;;;;;;;28.58;12.57;;;;;;;-1.32;65.07;94187.56;5049780;28;20032;-68
2020/12/03 02:21:13;;;;;;;32.45;12.40;;;;;;;-1.29;65.21;94186.31;5051348;28;20400;-68
2020/12/03 02:23:39;;;;;;;31.70;13.27;;;;;;;-1.27;64.47;94181.66;5049661;28;20124;-68
2020/12/03 02:26:05;;;;;;;24.13;11.65;;;;;;;-1.31;65.09;94175.28;5050988;28;20606;-68
2020/12/03 02:28:30;;;;;;;27.25;13.60;;;;;;;-1.31;65.33;94178.69;5050667;28;20032;-68
2020/12/03 02:30:56;;;;;;;26.83;11.40;;;;;;;-1.29;65.17;94181.09;5052508;28;20040;-67
2020/12/03 02:33:21;;;;;;;27.30;11.77;;;;;;;-1.28;65.29;94174.84;5069462;28;20476;-66
2020/12/03 02:35:47;;;;;;;32.65;14.07;;;;;;;-1.33;65.39;94153.81;5070526;28;20024;-67
2020/12/03 02:38:12;;;;;;;33.90;15.15;;;;;;;-1.29;65.71;94170.63;5063296;28;20025;-66
2020/12/03 02:40:38;;;;;;;33.58;15.15;;;;;;;-1.26;65.09;94157.09;5050580;28;20120;-66
2020/12/03 02:43:03;;;;;;;38.72;17.30;;;;;;;-1.25;65.94;94161.28;5049316;28;20114;-67
2020/12/03 02:45:29;;;;;;;45.85;18.27;;;;;;;-1.22;66.50;94171.31;5050691;28;20028;-67
2020/12/03 02:47:54;;;;;;;36.30;17.08;;;;;;;-1.29;66.62;94174.03;5049560;28;20112;-67
2020/12/03 02:50:20;;;;;;;39.30;17.15;;;;;;;-1.28;66.49;94167.00;5070710;28;20111;-67
2020/12/03 02:52:45;;;;;;;39.28;17.48;;;;;;;-1.24;66.48;94168.13;5069036;28;20043;-67
2020/12/03 02:55:11;;;;;;;43.75;17.00;;;;;;;-1.34;66.16;94157.44;5070368;28;20020;-67
2020/12/03 02:57:36;;;;;;;44.30;18.73;;;;;;;-1.35;66.53;94158.47;5070197;28;20055;-67
2020/12/03 03:00:04;;;;;;;32.88;16.55;;;;;;;-1.28;66.30;94154.72;5069530;28;20048;-66
2020/12/03 03:02:30;;;;;;;44.17;18.00;;;;;;;-1.27;66.45;94153.66;5050438;28;20029;-67
2020/12/03 03:04:55;;;;;;;40.08;17.42;;;;;;;-1.22;65.97;94153.78;5058271;28;20017;-66
2020/12/03 03:07:20;;;;;;;42.22;17.75;;;;;;;-1.21;66.43;94141.50;5070157;28;20024;-66
2020/12/03 03:09:46;;;;;;;38.00;17.70;;;;;;;-1.15;66.07;94147.63;5068746;28;20495;-67
2020/12/03 03:12:11;;;;;;;45.42;20.05;;;;;;;-1.13;66.35;94142.94;5067874;28;20111;-66
2020/12/03 03:14:37;;;;;;;49.42;19.35;;;;;;;-1.08;65.63;94145.66;5052833;28;20040;-67
2020/12/03 03:17:03;;;;;;;46.08;18.50;;;;;;;-1.09;66.15;94138.84;5069641;28;20754;-67
2020/12/03 03:19:28;;;;;;;41.20;18.52;;;;;;;-1.03;65.88;94146.53;5070357;28;20043;-67
2020/12/03 03:21:55;;;;;;;48.45;18.52;;;;;;;-1.08;66.15;94151.69;5068820;28;20510;-66
2020/12/03 03:24:21;;;;;;;47.55;19.75;;;;;;;-1.08;65.83;94151.69;5070004;28;20031;-67
2020/12/03 03:26:47;;;;;;;45.35;17.83;;;;;;;-1.07;66.05;94150.66;5061858;28;20086;-67
2020/12/03 03:29:13;;;;;;;40.60;18.13;;;;;;;-1.08;66.59;94146.47;5049995;28;20032;-67
2020/12/03 03:31:38;;;;;;;46.47;18.33;;;;;;;-1.10;66.40;94143.28;5048886;28;20028;-67
2020/12/03 03:34:04;;;;;;;39.03;18.33;;;;;;;-1.10;66.33;94148.50;5049931;28;20025;-67
2020/12/03 03:36:30;;;;;;;46.15;19.73;;;;;;;-1.07;66.38;94144.63;5050066;28;20492;-67
2020/12/03 03:38:56;;;;;;;42.47;20.65;;;;;;;-1.04;66.58;94157.22;5050205;28;20128;-67
2020/12/03 03:41:21;;;;;;;42.17;18.35;;;;;;;-1.04;66.79;94159.84;5058092;28;20129;-68
2020/12/03 03:43:47;;;;;;;39.15;18.42;;;;;;;-1.01;66.61;94154.16;5068780;28;20074;-67
2020/12/03 03:46:13;;;;;;;41.33;17.35;;;;;;;-0.97;66.23;94164.97;5057495;28;20128;-67
2020/12/03 03:48:38;;;;;;;39.22;17.50;;;;;;;-0.95;65.77;94160.28;5058360;28;20523;-67
2020/12/03 03:51:04;;;;;;;31.67;15.23;;;;;;;-0.91;66.17;94161.41;5057818;28;20040;-67
2020/12/03 03:53:30;;;;;;;36.85;15.00;;;;;;;-0.92;65.56;94165.03;5069732;28;20028;-67
2020/12/03 03:55:56;;;;;;;30.60;14.57;;;;;;;-0.97;65.81;94162.34;5069866;28;20036;-68
2020/12/03 03:58:21;;;;;;;36.03;14.85;;;;;;;-0.99;65.77;94148.72;5069732;28;20034;-67
2020/12/03 04:00:47;;;;;;;37.35;15.98;;;;;;;-0.99;65.77;94154.72;5069798;28;20475;-67
2020/12/03 04:03:18;;;;;;;35.67;14.57;;;;;;;-0.95;65.34;94155.06;5069743;28;20031;-67
2020/12/03 04:05:46;;;;;;;31.38;15.02;;;;;;;-0.98;65.92;94158.91;5066413;28;20017;-67
2020/12/03 04:08:14;;;;;;;36.10;15.30;;;;;;;-0.98;66.32;94147.66;5064914;28;20090;-67
2020/12/03 04:10:41;;;;;;;39.47;15.50;;;;;;;-1.05;66.19;94153.03;5058971;28;20036;-67
2020/12/03 04:13:06;;;;;;;37.40;17.48;;;;;;;-1.12;66.47;94160.22;5048356;28;20036;-67
2020/12/03 04:15:32;;;;;;;34.88;15.07;;;;;;;-1.10;66.11;94153.75;5049413;28;20399;-67
2020/12/03 04:17:57;;;;;;;37.42;16.15;;;;;;;-1.18;66.06;94150.69;5049762;28;20033;-67
2020/12/03 04:20:23;;;;;;;37.35;16.10;;;;;;;-1.20;66.57;94148.31;5048496;28;20029;-67
2020/12/03 04:22:48;;;;;;;34.10;14.30;;;;;;;-1.21;65.79;94144.09;5049827;28;20428;-67
2020/12/03 04:25:14;;;;;;;37.10;14.15;;;;;;;-1.16;65.86;94153.88;5052582;28;20105;-67
2020/12/03 04:27:40;;;;;;;35.72;16.70;;;;;;;-1.17;66.31;94153.06;5053024;28;20025;-67
2020/12/03 04:30:07;;;;;;;32.55;14.93;;;;;;;-1.20;65.73;94156.16;5053308;28;20060;-67
2020/12/03 04:32:32;;;;;;;32.45;14.10;;;;;;;-1.22;65.83;94155.59;5051687;28;20033;-67
2020/12/03 04:34:58;;;;;;;38.30;16.10;;;;;;;-1.22;65.23;94153.00;5052997;28;20033;-67
2020/12/03 04:37:24;;;;;;;30.40;13.85;;;;;;;-1.23;65.71;94154.00;5056221;28;20487;-67
2020/12/03 04:39:49;;;;;;;36.88;15.05;;;;;;;-1.25;65.78;94159.47;5072864;28;20028;-67
2020/12/03 04:42:24;;;;;;;41.80;16.75;;;;;;;-1.29;66.12;94158.34;5073083;28;20030;-67
2020/12/03 04:44:52;;;;;;;37.63;15.73;;;;;;;-1.28;66.28;94162.56;5070814;28;20059;-67
2020/12/03 04:47:49;;;;;;;34.03;15.07;;;;;;;-1.28;66.26;94146.88;5051688;28;20067;-67
2020/12/03 04:50:46;;;;;;;36.67;14.75;;;;;;;-1.30;66.01;94153.34;5052672;28;20024;-68
2020/12/03 04:53:41;;;;;;;39.05;16.45;;;;;;;-1.31;65.88;94156.97;5043695;28;20052;-68
2020/12/03 04:56:17;;;;;;;43.00;16.35;;;;;;;-1.35;65.34;94145.41;5052884;28;20024;-68
2020/12/03 04:58:52;;;;;;;39.80;15.75;;;;;;;-1.47;65.63;94142.81;5052472;28;20033;-68
2020/12/03 05:01:36;;;;;;;38.25;16.75;;;;;;;-1.48;65.77;94152.47;5052704;28;20079;-67
2020/12/03 05:04:04;;;;;;;42.72;16.73;;;;;;;-1.44;65.83;94147.59;5071614;28;20032;-67
2020/12/03 05:06:33;;;;;;;43.85;19.55;;;;;;;-1.43;66.80;94142.09;5072698;28;20445;-67
2020/12/03 05:09:06;;;;;;;41.88;18.95;;;;;;;-1.49;66.16;94142.25;5072459;28;20115;-68
2020/12/03 05:12:01;;;;;;;44.67;19.92;;;;;;;-1.51;66.72;94152.91;5071347;28;20028;-68
2020/12/03 05:14:32;;;;;;;44.65;18.75;;;;;;;-1.53;65.91;94157.59;5043791;28;20040;-68
2020/12/03 05:17:07;;;;;;;44.42;19.52;;;;;;;-1.54;66.74;94147.38;5052583;28;20033;-67
2020/12/03 05:19:42;;;;;;;45.60;20.65;;;;;;;-1.54;67.06;94145.56;5050909;28;20048;-67
2020/12/03 05:22:20;;;;;;;56.85;22.05;;;;;;;-1.51;66.70;94150.31;5052319;28;20017;-67
2020/12/03 05:24:46;;;;;;;51.42;23.23;;;;;;;-1.51;66.60;94152.13;5052356;28;20028;-67
2020/12/03 05:27:23;;;;;;;47.40;21.85;;;;;;;-1.48;66.13;94162.94;5052224;28;20055;-67
2020/12/03 05:29:49;;;;;;;49.95;22.88;;;;;;;-1.53;66.24;94164.63;5052095;28;20036;-67
2020/12/03 05:32:15;;;;;;;52.75;22.25;;;;;;;-1.52;66.12;94151.34;5051989;28;20036;-69
2020/12/03 05:34:41;;;;;;;52.78;22.27;;;;;;;-1.58;66.91;94152.28;5046490;28;20025;-67
2020/12/03 05:37:13;;;;;;;54.40;24.73;;;;;;;-1.59;67.11;94153.28;5051145;28;20052;-67
2020/12/03 05:39:41;;;;;;;48.38;21.70;;;;;;;-1.56;66.10;94160.69;5051962;28;20033;-68
2020/12/03 05:42:10;;;;;;;46.05;20.27;;;;;;;-1.55;66.63;94162.25;5051922;28;20013;-68
2020/12/03 05:44:42;;;;;;;51.25;20.38;;;;;;;-1.55;66.81;94167.47;5051684;28;20091;-68
2020/12/03 05:47:38;;;;;;;39.10;19.83;;;;;;;-1.56;66.63;94157.28;5051835;28;20021;-69
2020/12/03 05:50:10;;;;;;;52.70;22.60;;;;;;;-1.58;66.03;94147.03;5062745;28;20041;-68
2020/12/03 05:52:35;;;;;;;;;;;;;;;-1.57;66.37;94163.50;5051685;28;20136;-68
2020/12/03 05:55:10;;;;;;;54.90;22.30;;;;;;;-1.61;66.51;94152.72;5051331;28;20016;-68
2020/12/03 05:57:44;;;;;;;54.40;23.67;;;;;;;-1.55;66.30;94159.63;5050145;28;20055;-68
2020/12/03 06:00:12;;;;;;;56.55;24.25;;;;;;;-1.65;66.63;94162.03;5050249;28;20036;-68
2020/12/03 06:03:00;;;;;;;48.65;22.92;;;;;;;-1.59;66.67;94158.50;5051639;28;20476;-68
2020/12/03 06:05:36;;;;;;;47.75;22.35;;;;;;;-1.53;66.51;94151.56;5051178;28;20021;-68
2020/12/03 06:08:11;;;;;;;48.92;19.33;;;;;;;-1.52;66.61;94150.56;5051404;28;20025;-68
2020/12/03 06:10:39;;;;;;;61.10;23.20;;;;;;;-1.52;66.54;94146.13;5050053;28;20537;-68
2020/12/03 06:13:40;;;;;;;55.45;24.20;;;;;;;-1.50;66.88;94157.13;5049945;28;20044;-68
2020/12/03 06:16:37;;;;;;;64.53;28.77;;;;;;;-1.44;66.62;94145.75;5046478;28;20037;-68
2020/12/03 06:19:28;;;;;;;60.28;29.88;;;;;;;-1.40;66.78;94153.94;5050580;28;20099;-68
2020/12/03 06:22:16;;;;;;;82.28;37.67;;;;;;;-1.39;66.59;94152.91;5049745;28;20029;-68
2020/12/03 06:25:15;;;;;;;84.68;34.92;;;;;;;-1.27;66.02;94152.88;5057171;28;20024;-67
2020/12/03 06:28:03;;;;;;;81.57;30.70;;;;;;;-1.23;66.38;94161.84;5070776;28;20032;-67
2020/12/03 06:30:39;;;;;;;61.90;27.70;;;;;;;-1.16;66.09;94166.94;5064089;28;20415;-67
2020/12/03 06:33:14;;;;;;;63.10;27.45;;;;;;;-1.09;66.44;94159.78;5069509;28;20039;-67
2020/12/03 06:35:48;;;;;;;65.47;28.17;;;;;;;-1.09;66.50;94165.78;5070667;28;20086;-68
2020/12/03 06:38:21;;;;;;;66.53;29.90;;;;;;;-1.02;66.92;94158.59;5070622;28;20035;-68
2020/12/03 06:41:15;;;;;;;69.90;30.92;;;;;;;-0.94;66.25;94164.47;5069219;28;20051;-67
2020/12/03 06:43:51;;;;;;;67.97;27.95;;;;;;;-0.86;66.43;94166.72;5049224;28;20044;-67
2020/12/03 06:46:45;;;;;;;60.88;29.95;;;;;;;-0.79;66.71;94153.50;5069148;28;20157;-67
2020/12/03 06:49:42;;;;;;;65.35;29.75;;;;;;;-0.70;66.52;94162.56;5048250;28;20075;-69
2020/12/03 06:52:25;;;;;;;63.08;26.45;;;;;;;-0.57;65.93;94158.84;5050446;28;20037;-68
2020/12/03 06:55:25;;;;;;;49.15;22.95;;;;;;;-0.48;65.82;94170.53;5050223;28;20037;-68
2020/12/03 06:58:02;;;;;;;48.38;23.55;;;;;;;-0.36;65.98;94173.88;5049019;28;20534;-68
2020/12/03 07:01:05;;;;;;;52.35;23.33;;;;;;;-0.29;66.06;94165.88;5050184;28;20102;-68
2020/12/03 07:03:30;;;;;;;48.05;21.33;;;;;;;-0.21;65.68;94166.25;5050303;28;20033;-68
2020/12/03 07:06:24;;;;;;;47.92;21.13;;;;;;;-0.10;65.47;94162.00;5050162;28;20028;-68
2020/12/03 07:09:08;;;;;;;41.75;17.83;;;;;;;-0.03;65.32;94156.56;5050207;28;20162;-68
2020/12/03 07:12:21;;;;;;;41.20;18.92;;;;;;;0.07;65.48;94169.84;5048884;28;20036;-68
2020/12/03 07:15:05;;;;;;;41.17;18.50;;;;;;;0.19;64.68;94178.41;5031584;28;20110;-68
2020/12/03 07:17:36;;;;;;;39.63;18.60;;;;;;;0.31;64.49;94182.78;5050140;28;20094;-68
2020/12/03 07:20:19;;;;;;;41.47;19.27;;;;;;;0.43;64.12;94180.03;5061757;28;20399;-68
2020/12/03 07:22:51;;;;;;;41.30;19.40;;;;;;;0.52;63.11;94168.88;5070289;28;20029;-69
2020/12/03 07:25:17;;;;;;;56.88;24.25;;;;;;;0.60;63.35;94171.09;5070046;28;20522;-68
2020/12/03 07:27:54;;;;;;;46.33;21.40;;;;;;;0.66;63.28;94161.47;5061315;28;20040;-68
2020/12/03 07:30:41;;;;;;;46.53;22.80;;;;;;;0.72;63.43;94163.09;5063290;28;20484;-69
2020/12/03 07:33:18;;;;;;;51.03;23.65;;;;;;;0.70;63.35;94156.53;5058861;28;20021;-70
2020/12/03 07:36:17;;;;;;;51.58;21.67;;;;;;;0.65;63.89;94165.09;5059483;28;20083;-69
2020/12/03 07:38:52;;;;;;;46.83;20.38;;;;;;;0.72;63.28;94162.31;5056352;28;20425;-69
2020/12/03 07:41:21;;;;;;;45.40;18.92;;;;;;;0.80;62.93;94161.91;5053752;28;20029;-69
2020/12/03 07:43:47;;;;;;;43.22;21.08;;;;;;;0.87;62.34;94165.09;5052248;28;20031;-69
2020/12/03 07:46:28;;;;;;;44.30;19.75;;;;;;;0.97;61.58;94170.47;5048809;28;20112;-67
2020/12/03 07:48:53;;;;;;;47.10;21.00;;;;;;;0.99;61.52;94163.16;5069606;28;20376;-66
2020/12/03 07:51:19;;;;;;;40.45;20.23;;;;;;;1.08;61.62;94160.09;5069827;28;20052;-67
2020/12/03 07:53:46;;;;;;;44.22;22.17;;;;;;;1.16;60.97;94164.91;5068193;28;20432;-68
2020/12/03 07:56:26;;;;;;;35.95;18.45;;;;;;;1.23;60.32;94165.53;5060760;28;20045;-69
2020/12/03 07:58:53;;;;;;;41.45;17.70;;;;;;;1.26;60.55;94166.84;5064288;28;20444;-72
2020/12/03 08:01:31;;;;;;;41.58;20.05;;;;;;;1.32;60.87;94179.81;5073605;28;20017;-74
2020/12/03 08:04:09;;;;;;;44.72;20.10;;;;;;;1.38;61.03;94170.94;5072208;28;20103;-73
2020/12/03 08:06:38;;;;;;;45.40;18.83;;;;;;;1.43;60.74;94174.66;5073645;28;20024;-73
2020/12/03 08:09:04;;;;;;;46.22;22.20;;;;;;;1.50;60.58;94172.59;5073432;28;20423;-73
2020/12/03 08:11:38;;;;;;;41.03;19.98;;;;;;;1.56;59.74;94176.88;5073346;28;20020;-73
2020/12/03 08:14:23;;;;;;;38.30;17.83;;;;;;;1.56;59.69;94169.78;5073064;28;20036;-73
2020/12/03 08:16:49;;;;;;;44.35;19.52;;;;;;;1.64;59.78;94167.75;5073268;28;20062;-73
2020/12/03 08:19:32;;;;;;;38.70;19.25;;;;;;;1.62;59.99;94178.50;5073204;28;20063;-74
2020/12/03 08:21:59;;;;;;;42.28;20.75;;;;;;;1.46;60.88;94177.56;5073089;28;20173;-70
2020/12/03 08:24:27;;;;;;;42.15;19.50;;;;;;;1.55;60.12;94168.19;5071876;28;20017;-71
2020/12/03 08:27:17;;;;;;;40.58;20.15;;;;;;;1.57;60.39;94178.47;5066881;28;20103;-69
2020/12/03 08:29:43;;;;;;;41.25;19.92;;;;;;;1.59;60.78;94165.88;5051937;28;20033;-68
2020/12/03 08:32:08;;;;;;;40.55;18.27;;;;;;;1.70;61.29;94175.41;5053200;28;20081;-68
2020/12/03 08:34:38;;;;;;;42.47;20.83;;;;;;;1.80;60.75;94172.09;5052879;28;20033;-69
2020/12/03 08:37:11;;;;;;;43.65;20.08;;;;;;;1.88;60.57;94173.47;5071482;28;20024;-70
2020/12/03 08:39:37;;;;;;;46.03;20.80;;;;;;;1.64;60.70;94176.41;5068415;28;20112;-70
2020/12/03 08:42:06;;;;;;;44.78;20.88;;;;;;;1.73;61.16;94169.69;5061549;28;20031;-70
2020/12/03 08:44:32;;;;;;;41.78;20.35;;;;;;;1.84;60.63;94167.91;5061797;28;20021;-68
2020/12/03 08:47:01;;;;;;;48.38;21.50;;;;;;;1.94;60.77;94168.00;5071510;28;20040;-69
2020/12/03 08:49:26;;;;;;;52.60;23.35;;;;;;;2.08;59.96;94167.59;5071585;28;20025;-70
2020/12/03 08:51:58;;;;;;;45.10;21.58;;;;;;;2.15;59.97;94168.16;5067957;28;20052;-68
2020/12/03 08:54:25;;;;;;;39.72;20.40;;;;;;;2.20;59.66;94166.34;5051196;28;20108;-69
2020/12/03 08:56:56;;;;;;;47.03;20.30;;;;;;;2.24;58.95;94163.19;5051240;28;20053;-69
2020/12/03 08:59:28;;;;;;;41.92;20.80;;;;;;;2.24;59.77;94173.72;5052825;28;20025;-68
2020/12/03 09:02:08;;;;;;;;;;;;;;;2.35;59.04;94170.91;5052998;28;20039;-69
2020/12/03 09:04:36;;;;;;;55.67;24.73;;;;;;;2.39;58.66;94150.94;5051802;28;19921;-69
2020/12/03 09:07:04;;;;;;;45.05;22.42;;;;;;;2.45;59.20;94159.66;5052460;28;20131;-69
2020/12/03 09:09:30;;;;;;;40.47;20.08;;;;;;;2.56;58.72;94169.19;5052126;28;20025;-70
2020/12/03 09:11:56;;;;;;;47.10;23.20;;;;;;;2.67;56.92;94172.69;5062031;28;20101;-69
2020/12/03 09:14:23;;;;;;;40.40;20.17;;;;;;;2.61;57.83;94158.69;5072195;28;20066;-69
2020/12/03 09:17:02;;;;;;;48.17;24.73;;;;;;;2.41;58.74;94150.69;5070603;28;20037;-70
2020/12/03 09:19:29;;;;;;;45.90;22.02;;;;;;;2.51;58.19;94160.50;5072393;28;20158;-69
2020/12/03 09:21:56;;;;;;;44.55;21.33;;;;;;;2.52;58.20;94152.31;5054945;28;20021;-69
2020/12/03 09:24:24;;;;;;;40.55;19.08;;;;;;;2.57;58.03;94148.94;5050919;28;20024;-69
2020/12/03 09:26:51;;;;;;;48.00;21.33;;;;;;;2.63;58.15;94155.03;5051674;28;20033;-70
2020/12/03 09:29:18;;;;;;;41.63;19.17;;;;;;;2.69;58.44;94148.75;5051981;28;20039;-69
2020/12/03 09:31:44;;;;;;;46.65;22.10;;;;;;;2.74;57.55;94144.28;5068130;28;20036;-68
2020/12/03 09:34:10;;;;;;;46.60;20.75;;;;;;;2.83;57.34;94146.41;5071993;28;20082;-69
2020/12/03 09:36:37;;;;;;;45.40;20.90;;;;;;;2.69;58.67;94135.59;5070660;28;20391;-70
2020/12/03 09:39:04;;;;;;;44.25;19.55;;;;;;;2.79;58.27;94140.91;5071803;28;20020;-70
2020/12/03 09:41:31;;;;;;;50.97;22.10;;;;;;;2.85;58.13;94141.69;5071471;28;20536;-69
2020/12/03 09:44:00;;;;;;;52.55;23.65;;;;;;;2.73;58.14;94145.34;5071503;28;20480;-70
2020/12/03 09:46:29;;;;;;;42.65;22.08;;;;;;;2.85;57.99;94124.06;5062781;28;20040;-69
2020/12/03 09:48:56;;;;;;;43.92;21.38;;;;;;;2.92;57.83;94121.97;5071424;28;20029;-70
2020/12/03 09:51:23;;;;;;;54.88;23.75;;;;;;;2.96;58.13;94123.03;5066413;28;20037;-71
2020/12/03 09:53:50;;;;;;;42.67;20.85;;;;;;;2.98;57.24;94123.56;5051386;28;20017;-69
2020/12/03 09:56:16;;;;;;;45.60;23.13;;;;;;;2.92;58.16;94126.47;5049995;28;20108;-71
2020/12/03 09:58:42;;;;;;;57.58;24.08;;;;;;;3.00;57.84;94118.84;5051287;28;20016;-69
2020/12/03 10:01:09;;;;;;;56.88;24.85;;;;;;;3.04;58.80;94116.50;5050135;28;20027;-71
2020/12/03 10:04:00;;;;;;;43.50;21.30;;;;;;;3.19;59.09;94118.38;5062929;28;20036;-72
2020/12/03 10:06:35;;;;;;;49.67;21.77;;;;;;;3.31;59.02;94118.91;5070047;28;20120;-72
2020/12/03 10:09:09;;;;;;;44.33;22.13;;;;;;;3.44;57.90;94115.00;5071138;28;20025;-71
2020/12/03 10:11:52;;;;;;;48.05;22.30;;;;;;;3.55;58.46;94102.63;5071077;28;20036;-73
2020/12/03 10:14:43;;;;;;;52.17;22.75;;;;;;;3.63;58.53;94096.81;5069384;28;20036;-73
2020/12/03 10:17:15;;;;;;;43.67;21.23;;;;;;;3.76;57.19;94101.56;5066653;28;20028;-73
2020/12/03 10:19:42;;;;;;;45.53;22.50;;;;;;;3.80;57.70;94107.09;5070847;28;20570;-73
2020/12/03 10:22:23;;;;;;;44.10;22.20;;;;;;;3.99;56.22;94094.97;5070529;28;20028;-72
2020/12/03 10:25:20;;;;;;;49.13;22.92;;;;;;;4.17;56.28;94091.00;5064535;28;20108;-72
2020/12/03 10:28:01;;;;;;;42.55;22.15;;;;;;;4.36;56.15;94100.97;5050910;28;20116;-71
2020/12/03 10:30:37;;;;;;;45.88;21.83;;;;;;;4.52;56.02;94084.03;5069226;28;20028;-72
2020/12/03 10:33:11;;;;;;;48.42;22.65;;;;;;;4.70;55.54;94079.19;5070719;28;20029;-72
2020/12/03 10:35:45;;;;;;;47.72;23.10;;;;;;;4.84;55.20;94077.56;5054060;28;20082;-72
2020/12/03 10:38:19;;;;;;;45.60;22.08;;;;;;;4.97;54.32;94073.56;5060378;28;20116;-72
2020/12/03 10:40:54;;;;;;;48.88;22.48;;;;;;;5.10;54.05;94064.22;5069761;28;20032;-71
2020/12/03 10:43:26;;;;;;;48.90;23.13;;;;;;;5.24;54.12;94065.19;5070376;28;20012;-71
2020/12/03 10:45:56;;;;;;;52.95;22.70;;;;;;;5.35;53.83;94066.72;5061837;28;20052;-72
2020/12/03 10:48:36;;;;;;;50.33;23.05;;;;;;;5.42;53.11;94056.63;5050247;28;20025;-71
2020/12/03 10:51:07;;;;;;;50.97;24.88;;;;;;;5.52;53.14;94073.47;5050119;28;20142;-73
2020/12/03 10:53:34;;;;;;;50.17;23.65;;;;;;;5.58;52.64;94064.44;5050156;28;20477;-73
2020/12/03 10:56:07;;;;;;;62.25;28.13;;;;;;;5.59;52.74;94060.72;5050394;28;20029;-72
2020/12/03 10:58:43;;;;;;;53.00;26.73;;;;;;;5.70;52.87;94046.38;5051635;28;20098;-73
2020/12/03 11:01:18;;;;;;;66.00;30.85;;;;;;;5.81;52.03;94047.84;5054873;28;20479;-72
2020/12/03 11:03:45;;;;;;;60.67;29.98;;;;;;;5.90;52.10;94045.38;5054438;28;20020;-71
2020/12/03 11:06:11;;;;;;;53.08;29.83;;;;;;;5.95;51.16;94048.03;5062895;28;20451;-71
2020/12/03 11:08:38;;;;;;;48.17;24.40;;;;;;;5.99;51.54;94043.75;5069331;28;20028;-71
2020/12/03 11:11:04;;;;;;;49.22;25.00;;;;;;;6.05;51.74;94038.41;5061887;28;20029;-71
2020/12/03 11:13:30;;;;;;;50.22;23.15;;;;;;;6.14;51.56;94039.38;5056172;28;20031;-72
2020/12/03 11:15:59;;;;;;;45.38;23.30;;;;;;;6.23;51.60;94043.78;5068345;28;20032;-73
2020/12/03 11:18:26;;;;;;;52.90;24.80;;;;;;;6.27;50.86;94041.38;5068489;28;20033;-72
2020/12/03 11:21:03;;;;;;;59.70;29.08;;;;;;;6.36;51.14;94031.72;5056448;28;20056;-73
2020/12/03 11:23:31;;;;;;;60.83;27.48;;;;;;;6.38;51.11;94019.00;5057163;28;20032;-73
2020/12/03 11:26:07;;;;;;;65.85;27.70;;;;;;;6.45;51.13;94021.28;5056060;28;20100;-72
2020/12/03 11:28:38;;;;;;;145.68;55.60;;;;;;;6.53;50.58;94011.94;5068699;28;20047;-74
2020/12/03 11:31:08;;;;;;;85.55;37.92;;;;;;;6.53;50.43;94020.66;5066707;28;20029;-73
2020/12/03 11:33:51;;;;;;;54.95;26.30;;;;;;;6.56;50.23;94006.88;5050262;28;20029;-72
2020/12/03 11:36:16;;;;;;;;;;;;;;;6.58;50.37;94007.38;5054575;28;20036;-72
2020/12/03 11:38:51;;;;;;;55.45;28.23;;;;;;;6.58;50.73;93999.44;5053894;28;20327;-73
2020/12/03 11:44:26;;;;;;;40.83;21.45;;;;;;;6.76;49.75;93997.09;5059999;28;20024;-69